createdAt,value
2023-07-25T00:03:51.256Z,88.18
2023-07-25T00:08:59.388Z,88.76
2023-07-25T00:14:07.351Z,88.58
2023-07-25T00:19:15.121Z,88.48
2023-07-25T00:24:22.926Z,88.88
2023-07-25T00:29:30.911Z,88.73
2023-07-25T00:34:38.558Z,88.37
2023-07-25T00:39:46.638Z,88.09
2023-07-25T00:44:54.612Z,88.25
2023-07-25T00:50:02.634Z,88.62
2023-07-25T00:55:12.143Z,88.23
2023-07-25T01:00:19.960Z,88.22
2023-07-25T01:05:31.015Z,88.00
2023-07-25T01:10:39.760Z,87.92
2023-07-25T01:15:47.944Z,87.93
2023-07-25T01:20:55.961Z,87.28
2023-07-25T01:26:03.995Z,88.11
2023-07-25T01:31:11.697Z,88.74
2023-07-25T01:36:19.393Z,88.72
2023-07-25T01:41:27.351Z,88.92
2023-07-25T01:46:35.470Z,89.62
2023-07-25T01:51:43.517Z,89.45
2023-07-25T01:56:51.441Z,89.22
2023-07-25T02:01:59.461Z,89.14
2023-07-25T02:07:08.369Z,89.75
2023-07-25T02:12:16.051Z,89.99
2023-07-25T02:17:23.741Z,90.10
2023-07-25T02:22:31.687Z,90.30
2023-07-25T02:27:39.355Z,90.78
2023-07-25T02:32:47.107Z,90.85
2023-07-25T02:37:55.127Z,90.68
2023-07-25T02:43:04.108Z,90.78
2023-07-25T02:48:11.889Z,90.68
2023-07-25T02:53:19.681Z,90.46
2023-07-25T02:58:27.432Z,90.12
2023-07-25T03:03:35.132Z,90.50
2023-07-25T03:08:42.813Z,90.47
2023-07-25T03:13:50.523Z,90.29
2023-07-25T03:18:58.194Z,90.09
2023-07-25T03:24:06.928Z,90.57
2023-07-25T03:29:14.648Z,90.47
2023-07-25T03:34:22.357Z,90.16
2023-07-25T03:39:30.036Z,89.86
2023-07-25T03:44:37.746Z,90.02
2023-07-25T03:49:47.118Z,88.98
2023-07-25T03:54:54.812Z,88.60
2023-07-25T04:00:02.941Z,88.76
2023-07-25T04:05:11.571Z,88.90
2023-07-25T04:10:19.397Z,88.71
2023-07-25T04:15:27.224Z,88.58
2023-07-25T04:20:34.927Z,88.50
2023-07-25T04:25:42.702Z,88.09
2023-07-25T04:30:50.502Z,86.77
2023-07-25T04:35:58.291Z,86.44
2023-07-25T04:41:06.117Z,86.17
2023-07-25T04:46:13.800Z,86.31
2023-07-25T04:51:21.473Z,85.00
2023-07-25T04:56:29.177Z,83.60
2023-07-25T05:01:37.034Z,82.93
2023-07-25T05:06:44.767Z,82.89
2023-07-25T05:11:53.130Z,82.25
2023-07-25T05:17:00.791Z,81.17
2023-07-25T05:22:08.818Z,80.79
2023-07-25T05:27:16.504Z,80.86
2023-07-25T05:32:25.505Z,80.22
2023-07-25T05:37:39.163Z,80.40
2023-07-25T05:42:46.926Z,80.40
2023-07-25T05:47:54.706Z,79.82
2023-07-25T05:53:02.387Z,78.70
2023-07-25T05:58:10.099Z,77.00
2023-07-25T06:03:18.620Z,77.16
2023-07-25T06:08:26.427Z,76.68
2023-07-25T06:13:35.045Z,75.53
2023-07-25T06:18:42.835Z,75.04
2023-07-25T06:23:50.657Z,72.50
2023-07-25T06:28:58.302Z,72.97
2023-07-25T06:34:06.066Z,71.28
2023-07-25T06:39:13.816Z,70.29
2023-07-25T06:44:21.533Z,70.27
2023-07-25T06:49:29.256Z,69.82
2023-07-25T06:54:36.982Z,68.11
2023-07-25T06:59:44.655Z,67.65
2023-07-25T07:04:52.974Z,67.55
2023-07-25T07:10:00.678Z,66.78
2023-07-25T07:15:10.202Z,66.19
2023-07-25T07:20:18.261Z,67.93
2023-07-25T07:25:26.924Z,68.58
2023-07-25T07:30:34.670Z,68.32
2023-07-25T07:35:42.404Z,67.09
2023-07-25T07:40:50.575Z,65.74
2023-07-25T07:51:27.012Z,65.42
2023-07-25T07:56:35.315Z,65.36
2023-07-25T08:01:51.858Z,63.88
2023-07-25T08:06:59.692Z,62.61
2023-07-25T08:12:09.125Z,61.50
2023-07-25T08:17:17.751Z,61.28
2023-07-25T08:22:25.471Z,61.79
2023-07-25T08:27:33.183Z,62.20
2023-07-25T08:32:40.881Z,61.91
2023-07-25T08:37:48.616Z,60.26
2023-07-25T08:43:04.168Z,59.80
2023-07-25T08:48:15.655Z,59.22
2023-07-25T08:53:25.453Z,57.07
2023-07-25T08:58:33.930Z,56.30
2023-07-25T09:03:43.865Z,54.67
2023-07-25T09:08:51.688Z,52.67
2023-07-25T09:13:59.395Z,53.29
2023-07-25T09:19:07.553Z,53.81
2023-07-25T09:24:15.345Z,54.23
2023-07-25T09:29:28.961Z,53.61
2023-07-25T09:34:38.643Z,54.10
2023-07-25T09:39:47.644Z,54.31
2023-07-25T09:44:58.828Z,52.59
2023-07-25T09:50:08.549Z,52.92
2023-07-25T09:55:16.232Z,53.61
2023-07-25T10:00:24.624Z,53.81
2023-07-25T10:05:32.418Z,54.40
2023-07-25T10:10:41.757Z,55.16
2023-07-25T10:15:50.492Z,54.80
2023-07-25T10:20:58.628Z,51.30
2023-07-25T10:26:18.434Z,50.24
2023-07-25T10:31:35.068Z,51.90
2023-07-25T10:36:43.936Z,52.94
2023-07-25T10:41:57.062Z,54.00
2023-07-25T10:47:24.929Z,54.20
2023-07-25T10:52:46.361Z,53.99
2023-07-25T10:58:10.912Z,53.62
2023-07-25T11:03:38.558Z,53.75
2023-07-25T11:08:46.260Z,55.09
2023-07-25T11:13:55.203Z,54.75
2023-07-25T11:19:03.859Z,54.71
2023-07-25T11:24:13.594Z,54.83
2023-07-25T11:29:21.425Z,54.33
2023-07-25T11:34:29.254Z,55.17
2023-07-25T11:39:37.117Z,54.48
2023-07-25T11:44:46.879Z,54.98
2023-07-25T11:50:10.151Z,54.84
2023-07-25T11:56:01.729Z,53.93
2023-07-25T12:01:13.976Z,53.31
2023-07-25T12:06:32.649Z,53.63
2023-07-25T12:11:48.313Z,52.58
2023-07-25T12:16:57.097Z,52.67
2023-07-25T12:22:10.167Z,52.03
2023-07-25T12:27:22.411Z,52.05
2023-07-25T12:32:31.189Z,52.46
2023-07-25T12:37:40.070Z,51.93
2023-07-25T12:42:48.613Z,52.46
2023-07-25T12:47:57.066Z,52.22
2023-07-25T12:53:05.745Z,52.44
2023-07-25T12:58:14.444Z,52.99
2023-07-25T13:03:27.376Z,52.39
2023-07-25T13:08:36.237Z,52.70
2023-07-25T13:13:45.206Z,50.80
2023-07-25T13:18:53.941Z,50.16
2023-07-25T13:24:02.419Z,49.72
2023-07-25T13:29:10.877Z,49.68
2023-07-25T13:34:19.643Z,49.38
2023-07-25T13:39:28.727Z,47.67
2023-07-25T13:44:37.232Z,45.66
2023-07-25T13:49:46.226Z,44.75
2023-07-25T13:54:55.068Z,45.42
2023-07-25T14:00:05.008Z,45.21
2023-07-25T14:05:14.608Z,45.01
2023-07-25T14:10:23.293Z,44.09
2023-07-25T14:15:32.829Z,43.61
2023-07-25T14:20:41.716Z,43.90
2023-07-25T14:25:50.423Z,44.36
2023-07-25T14:30:59.234Z,44.34
2023-07-25T14:36:08.373Z,45.48
2023-07-25T14:41:17.832Z,45.90
2023-07-25T14:46:26.325Z,45.81
2023-07-25T14:51:36.423Z,45.60
2023-07-25T14:56:45.459Z,45.15
2023-07-25T15:01:54.278Z,45.18
2023-07-25T15:07:02.754Z,45.15
2023-07-25T15:12:11.681Z,42.95
2023-07-25T15:17:23.779Z,41.68
2023-07-25T15:22:33.012Z,41.25
2023-07-25T15:27:41.747Z,41.02
2023-07-25T15:32:51.414Z,41.92
2023-07-25T15:37:59.960Z,42.36
2023-07-25T15:43:10.932Z,41.72
2023-07-25T15:48:20.095Z,42.33
2023-07-25T15:53:28.863Z,43.19
2023-07-25T15:58:37.384Z,43.83
2023-07-25T16:03:48.397Z,44.36
2023-07-25T16:08:58.068Z,45.01
2023-07-25T16:14:07.238Z,44.97
2023-07-25T16:19:17.222Z,45.56
2023-07-25T16:24:26.825Z,46.01
2023-07-25T16:29:35.372Z,46.56
2023-07-25T16:34:44.259Z,47.34
2023-07-25T16:39:53.189Z,46.68
2023-07-25T16:45:02.897Z,45.70
2023-07-25T16:50:13.074Z,44.74
2023-07-25T16:55:22.029Z,44.18
2023-07-25T17:00:31.143Z,44.43
2023-07-25T17:05:39.633Z,45.91
2023-07-25T17:10:49.446Z,45.78
2023-07-25T17:15:58.459Z,45.70
2023-07-25T17:21:07.507Z,46.03
2023-07-25T17:26:15.983Z,46.32
2023-07-25T17:31:24.515Z,47.22
2023-07-25T17:36:33.136Z,47.79
2023-07-25T17:41:42.184Z,48.03
2023-07-25T17:46:51.413Z,48.41
2023-07-25T17:52:00.337Z,47.24
2023-07-25T17:57:09.171Z,48.47
2023-07-25T18:02:17.650Z,48.90
2023-07-25T18:07:27.126Z,49.04
2023-07-25T18:12:35.636Z,50.48
2023-07-25T18:17:44.168Z,51.06
2023-07-25T18:22:52.729Z,52.39
2023-07-25T18:28:02.079Z,52.39
2023-07-25T18:33:14.202Z,52.83
2023-07-25T18:38:24.728Z,52.94
2023-07-25T18:43:33.899Z,53.09
2023-07-25T18:48:42.737Z,54.79
2023-07-25T18:53:51.688Z,56.08
2023-07-25T18:59:00.592Z,56.65
2023-07-25T19:04:11.282Z,56.39
2023-07-25T19:09:21.654Z,56.86
2023-07-25T19:14:31.079Z,57.78
2023-07-25T19:19:41.465Z,58.32
2023-07-25T19:24:50.228Z,58.16
2023-07-25T19:29:59.153Z,59.33
2023-07-25T19:35:10.470Z,60.72
2023-07-25T19:40:20.072Z,61.20
2023-07-25T19:45:28.475Z,61.14
2023-07-25T19:50:36.553Z,61.36
2023-07-25T19:55:45.952Z,61.61
2023-07-25T20:00:54.499Z,61.16
2023-07-25T20:06:03.362Z,61.64
2023-07-25T20:11:11.775Z,62.25
2023-07-25T20:16:20.236Z,62.19
2023-07-25T20:21:29.090Z,62.67
2023-07-25T20:26:39.147Z,62.90
2023-07-25T20:31:49.903Z,62.81
2023-07-25T20:36:58.325Z,62.97
2023-07-25T20:42:07.283Z,62.61
2023-07-25T20:47:15.767Z,62.96
2023-07-25T20:52:24.284Z,63.70
2023-07-25T20:57:33.122Z,64.13
2023-07-25T21:02:42.093Z,64.44
2023-07-25T21:07:50.878Z,65.92
2023-07-25T21:12:59.635Z,65.91
2023-07-25T21:18:13.753Z,66.82
2023-07-25T21:23:25.612Z,68.53
2023-07-25T21:28:34.520Z,70.75
2023-07-25T21:33:43.021Z,72.86
2023-07-25T21:38:52.614Z,73.91
2023-07-25T21:44:02.380Z,75.22
2023-07-25T21:49:10.874Z,77.70
2023-07-25T21:54:19.982Z,79.30
2023-07-25T21:59:28.556Z,80.65
2023-07-25T22:04:37.095Z,82.09
2023-07-25T22:09:45.969Z,82.47
2023-07-25T22:14:54.509Z,84.34
2023-07-25T22:20:03.229Z,84.66
2023-07-25T22:25:12.070Z,85.28
2023-07-25T22:30:20.891Z,85.84
2023-07-25T22:35:29.444Z,87.91
2023-07-25T22:40:37.916Z,88.39
2023-07-25T22:45:46.574Z,88.58
2023-07-25T22:50:55.937Z,88.94
2023-07-25T22:56:05.825Z,89.00
2023-07-25T23:01:15.231Z,88.30
2023-07-25T23:06:23.718Z,88.55
2023-07-25T23:11:33.005Z,89.04
2023-07-25T23:16:41.496Z,89.07
2023-07-25T23:21:50.308Z,88.67
2023-07-25T23:26:58.989Z,88.68
2023-07-25T23:32:09.223Z,89.12
2023-07-25T23:37:17.869Z,89.64
2023-07-25T23:42:26.360Z,89.62
2023-07-25T23:47:34.853Z,89.30
2023-07-25T23:52:43.565Z,89.85
2023-07-25T23:57:52.041Z,91.13
